createdAt,value
2018-09-22T00:02:37.479Z,100397.64
2018-09-22T00:05:41.819Z,100397.72
2018-09-22T00:08:46.099Z,100399.95
2018-09-22T00:11:50.478Z,100417.41
2018-09-22T00:14:54.817Z,100428.76
2018-09-22T00:17:59.192Z,100417.55
2018-09-22T00:21:03.487Z,100413.75
2018-09-22T00:24:07.828Z,100421.20
2018-09-22T00:27:12.210Z,100430.40
2018-09-22T00:30:16.605Z,100447.38
2018-09-22T00:33:20.909Z,100450.91
2018-09-22T00:36:25.227Z,100457.44
2018-09-22T00:39:29.546Z,100466.57
2018-09-22T00:42:34.026Z,100472.13
2018-09-22T00:45:38.279Z,100490.86
2018-09-22T00:48:42.760Z,100500.35
2018-09-22T00:51:47.139Z,100493.42
2018-09-22T00:54:51.452Z,100488.26
2018-09-22T00:57:55.792Z,100480.73
2018-09-22T01:01:00.058Z,100478.89
2018-09-22T01:04:04.351Z,100475.83
2018-09-22T01:07:08.658Z,100487.05
2018-09-22T01:10:12.977Z,100481.42
2018-09-22T01:13:17.384Z,100474.49
2018-09-22T01:16:21.740Z,100480.98
2018-09-22T01:19:25.965Z,100478.72
2018-09-22T01:22:30.270Z,100489.89
2018-09-22T01:25:34.585Z,100494.55
2018-09-22T01:28:38.888Z,100508.43
2018-09-22T01:31:43.466Z,100516.62
2018-09-22T01:34:47.733Z,100522.64
2018-09-22T01:37:52.401Z,100534.25
2018-09-22T01:40:56.689Z,100539.95
2018-09-22T01:44:01.001Z,100546.09
2018-09-22T01:47:05.264Z,100554.94
2018-09-22T01:50:09.518Z,100552.53
2018-09-22T01:53:13.797Z,100548.28
2018-09-22T01:56:18.089Z,100556.11
2018-09-22T01:59:22.413Z,100562.14
2018-09-22T02:02:26.646Z,100567.34
2018-09-22T02:05:30.955Z,100557.77
2018-09-22T02:08:35.309Z,100568.52
2018-09-22T02:11:39.603Z,100577.42
2018-09-22T02:14:43.895Z,100566.87
2018-09-22T02:17:48.263Z,100574.93
2018-09-22T02:20:52.564Z,100577.44
2018-09-22T02:23:56.876Z,100580.81
2018-09-22T02:27:01.306Z,100587.27
2018-09-22T02:30:05.861Z,100583.20
2018-09-22T02:33:10.144Z,100583.44
2018-09-22T02:36:14.485Z,100585.04
2018-09-22T02:39:18.732Z,100593.54
2018-09-22T02:42:23.009Z,100609.05
2018-09-22T02:45:27.253Z,100606.42
2018-09-22T02:48:31.546Z,100612.86
2018-09-22T02:51:35.901Z,100618.86
2018-09-22T02:54:40.184Z,100617.91
2018-09-22T02:57:44.544Z,100632.59
2018-09-22T03:00:48.837Z,100631.69
2018-09-22T03:03:53.155Z,100640.00
2018-09-22T03:06:57.476Z,100637.92
2018-09-22T03:10:01.813Z,100634.67
2018-09-22T03:13:06.134Z,100640.87
2018-09-22T03:16:10.397Z,100649.97
2018-09-22T03:19:14.624Z,100649.28
2018-09-22T03:22:18.993Z,100665.30
2018-09-22T03:25:23.304Z,100661.88
2018-09-22T03:28:27.619Z,100667.55
2018-09-22T03:31:31.961Z,100665.34
2018-09-22T03:34:36.197Z,100670.96
2018-09-22T03:37:40.482Z,100676.55
2018-09-22T03:40:44.769Z,100683.08
2018-09-22T03:43:49.165Z,100679.19
2018-09-22T03:46:53.468Z,100680.97
2018-09-22T03:49:57.750Z,100685.29
2018-09-22T03:53:01.988Z,100692.55
2018-09-22T03:56:06.307Z,100689.42
2018-09-22T03:59:10.763Z,100701.91
2018-09-22T04:02:15.224Z,100719.80
2018-09-22T04:05:19.485Z,100716.69
2018-09-22T04:08:23.822Z,100720.72
2018-09-22T04:11:28.077Z,100718.52
2018-09-22T04:14:32.445Z,100710.19
2018-09-22T04:17:36.768Z,100717.02
2018-09-22T04:20:41.093Z,100716.48
2018-09-22T04:23:45.400Z,100723.03
2018-09-22T04:26:51.539Z,100719.09
2018-09-22T04:29:55.821Z,100724.61
2018-09-22T04:33:00.077Z,100732.40
2018-09-22T04:36:04.347Z,100738.45
2018-09-22T04:39:10.093Z,100746.77
2018-09-22T04:42:14.273Z,100770.78
2018-09-22T04:45:18.602Z,100754.97
2018-09-22T04:48:22.940Z,100745.97
2018-09-22T04:51:27.753Z,100748.47
2018-09-22T04:54:32.106Z,100756.02
2018-09-22T04:57:36.430Z,100757.05
2018-09-22T05:00:40.680Z,100766.80
2018-09-22T05:03:44.916Z,100772.63
2018-09-22T05:06:49.207Z,100779.81
2018-09-22T05:09:53.512Z,100779.64
2018-09-22T05:12:57.888Z,100789.54
2018-09-22T05:16:02.181Z,100792.13
2018-09-22T05:19:06.679Z,100799.92
2018-09-22T05:22:10.898Z,100793.30
2018-09-22T05:25:15.224Z,100791.95
2018-09-22T05:28:19.704Z,100794.76
2018-09-22T05:31:24.064Z,100792.03
2018-09-22T05:34:28.394Z,100787.11
2018-09-22T05:37:32.718Z,100790.00
2018-09-22T05:40:37.029Z,100789.45
2018-09-22T05:43:41.352Z,100790.25
2018-09-22T05:46:45.666Z,100794.08
2018-09-22T05:49:50.026Z,100791.91
2018-09-22T05:52:54.312Z,100797.09
2018-09-22T05:55:58.662Z,100795.02
2018-09-22T05:59:02.928Z,100803.34
2018-09-22T06:02:07.151Z,100799.07
2018-09-22T06:05:11.513Z,100806.16
2018-09-22T06:08:15.842Z,100809.38
2018-09-22T06:11:20.136Z,100810.80
2018-09-22T06:14:24.476Z,100816.16
2018-09-22T06:17:28.783Z,100809.06
2018-09-22T06:20:33.107Z,100802.73
2018-09-22T06:23:37.542Z,100815.08
2018-09-22T06:26:41.767Z,100804.47
2018-09-22T06:29:46.312Z,100805.52
2018-09-22T06:32:50.707Z,100810.63
2018-09-22T06:35:55.029Z,100809.88
2018-09-22T06:38:59.249Z,100821.81
2018-09-22T06:42:03.541Z,100837.73
2018-09-22T06:45:07.799Z,100834.23
2018-09-22T06:48:12.124Z,100819.89
2018-09-22T06:51:16.490Z,100810.52
2018-09-22T06:54:20.848Z,100810.80
2018-09-22T06:57:25.147Z,100819.45
2018-09-22T07:00:29.489Z,100810.55
2018-09-22T07:03:33.826Z,100807.53
2018-09-22T07:06:38.170Z,100811.91
2018-09-22T07:09:42.448Z,100815.33
2018-09-22T07:12:46.799Z,100811.76
2018-09-22T07:15:51.104Z,100822.78
2018-09-22T07:18:55.385Z,100827.59
2018-09-22T07:22:04.900Z,100824.73
2018-09-22T07:25:09.224Z,100812.33
2018-09-22T07:28:13.887Z,100815.61
2018-09-22T07:31:18.270Z,100814.55
2018-09-22T07:34:22.555Z,100823.84
2018-09-22T07:37:26.880Z,100826.72
2018-09-22T07:40:31.247Z,100822.64
2018-09-22T07:43:35.577Z,100827.66
2018-09-22T07:46:39.945Z,100822.98
2018-09-22T07:49:44.163Z,100823.52
2018-09-22T07:52:48.496Z,100818.47
2018-09-22T07:55:52.811Z,100819.48
2018-09-22T07:58:57.070Z,100822.67
2018-09-22T08:02:01.365Z,100817.66
2018-09-22T08:05:06.513Z,100811.69
2018-09-22T08:08:10.823Z,100807.06
2018-09-22T08:11:15.153Z,100812.88
2018-09-22T08:14:19.486Z,100818.31
2018-09-22T08:17:24.036Z,100824.98
2018-09-22T08:20:28.272Z,100814.25
2018-09-22T08:23:32.628Z,100812.08
2018-09-22T08:26:37.531Z,100815.54
2018-09-22T08:29:41.886Z,100826.00
2018-09-22T08:32:46.198Z,100819.07
2018-09-22T08:35:50.461Z,100819.11
2018-09-22T08:38:54.854Z,100808.72
2018-09-22T08:41:59.118Z,100797.53
2018-09-22T08:45:03.563Z,100806.34
2018-09-22T08:48:07.898Z,100799.68
2018-09-22T08:51:12.274Z,100814.73
2018-09-22T08:54:16.564Z,100856.58
2018-09-22T08:57:20.821Z,100860.47
2018-09-22T09:00:25.269Z,100853.63
2018-09-22T09:03:29.536Z,100853.54
2018-09-22T09:06:33.838Z,100851.19
2018-09-22T09:09:38.071Z,100871.59
2018-09-22T09:12:42.443Z,100873.98
2018-09-22T09:15:46.802Z,100865.52
2018-09-22T09:18:51.198Z,100869.60
2018-09-22T09:21:55.553Z,100859.02
2018-09-22T09:25:00.076Z,100860.02
2018-09-22T09:28:04.468Z,100852.06
2018-09-22T09:31:08.787Z,100848.09
2018-09-22T09:34:13.078Z,100840.45
2018-09-22T09:37:17.422Z,100844.52
2018-09-22T09:40:21.749Z,100839.88
2018-09-22T09:43:26.068Z,100839.65
2018-09-22T09:46:30.289Z,100833.30
2018-09-22T09:49:34.593Z,100835.63
2018-09-22T09:52:38.866Z,100829.18
2018-09-22T09:55:43.131Z,100823.17
2018-09-22T09:58:47.459Z,100843.59
2018-09-22T10:01:51.767Z,100834.41
2018-09-22T10:04:56.156Z,100846.80
2018-09-22T10:08:00.541Z,100852.81
2018-09-22T10:11:04.813Z,100842.84
2018-09-22T10:14:09.140Z,100853.36
2018-09-22T10:17:13.736Z,100841.36
2018-09-22T10:20:18.222Z,100836.71
2018-09-22T10:23:22.478Z,100830.29
2018-09-22T10:26:26.799Z,100822.52
2018-09-22T10:29:31.145Z,100831.16
2018-09-22T10:32:35.489Z,100848.07
2018-09-22T10:35:39.788Z,100845.45
2018-09-22T10:38:44.123Z,100832.28
2018-09-22T10:41:48.440Z,100847.02
2018-09-22T10:44:52.796Z,100846.63
2018-09-22T10:47:57.150Z,100833.98
2018-09-22T10:51:01.498Z,100852.28
2018-09-22T10:54:05.860Z,100843.59
2018-09-22T10:57:10.154Z,100856.78
2018-09-22T11:00:14.521Z,100859.03
2018-09-22T11:03:18.930Z,100876.38
2018-09-22T11:06:23.233Z,100858.03
2018-09-22T11:09:27.514Z,100860.25
2018-09-22T11:12:31.792Z,100857.72
2018-09-22T11:15:36.088Z,100856.04
2018-09-22T11:18:40.490Z,100859.54
2018-09-22T11:21:44.775Z,100854.34
2018-09-22T11:24:49.128Z,100857.84
2018-09-22T11:27:53.581Z,100865.70
2018-09-22T11:30:57.880Z,100858.69
2018-09-22T11:34:02.196Z,100853.42
2018-09-22T11:37:06.692Z,100855.64
2018-09-22T11:40:11.049Z,100836.92
2018-09-22T11:43:15.341Z,100860.48
2018-09-22T11:46:19.727Z,100873.56
2018-09-22T11:49:24.104Z,100874.42
2018-09-22T11:52:28.425Z,100890.12
2018-09-22T11:55:32.663Z,100910.39
2018-09-22T11:58:36.970Z,100899.17
2018-09-22T12:01:41.246Z,100901.91
2018-09-22T12:04:45.541Z,100922.34
2018-09-22T12:07:49.817Z,100932.63
2018-09-22T12:10:54.121Z,100936.11
2018-09-22T12:13:58.448Z,100916.69
2018-09-22T12:17:02.745Z,100919.88
2018-09-22T12:20:07.101Z,100919.61
2018-09-22T12:23:11.544Z,100905.30
2018-09-22T12:26:15.919Z,100917.89
2018-09-22T12:29:20.158Z,100915.59
2018-09-22T12:32:24.614Z,100918.00
2018-09-22T12:35:29.127Z,100912.14
2018-09-22T12:38:33.416Z,100916.20
2018-09-22T12:41:37.873Z,100908.83
2018-09-22T12:44:42.341Z,100917.03
2018-09-22T12:47:46.634Z,100905.03
2018-09-22T12:50:50.981Z,100905.23
2018-09-22T12:53:55.316Z,100903.33
2018-09-22T12:56:59.563Z,100944.20
2018-09-22T13:00:03.884Z,100954.33
2018-09-22T13:03:08.275Z,100958.03
2018-09-22T13:06:12.543Z,100950.50
2018-09-22T13:09:16.888Z,100940.34
2018-09-22T13:12:21.208Z,100933.17
2018-09-22T13:15:25.529Z,100921.53
2018-09-22T13:18:29.860Z,100914.31
2018-09-22T13:21:34.201Z,100920.05
2018-09-22T13:24:38.487Z,100923.12
2018-09-22T13:27:42.859Z,100918.34
2018-09-22T13:30:47.134Z,100918.72
2018-09-22T13:33:51.452Z,100920.31
2018-09-22T13:36:55.768Z,100931.25
2018-09-22T13:40:00.092Z,100927.42
2018-09-22T13:43:04.415Z,100944.33
2018-09-22T13:46:08.896Z,100963.00
2018-09-22T13:49:13.176Z,100952.35
2018-09-22T13:52:17.432Z,100949.59
2018-09-22T13:55:21.795Z,100949.66
2018-09-22T13:58:26.113Z,100941.22
2018-09-22T14:01:30.414Z,100940.38
2018-09-22T14:04:34.780Z,100932.76
2018-09-22T14:07:39.046Z,100936.30
2018-09-22T14:10:43.366Z,100931.61
2018-09-22T14:13:47.670Z,100931.73
2018-09-22T14:16:52.028Z,100932.23
2018-09-22T14:19:56.377Z,100931.84
2018-09-22T14:23:00.701Z,100918.59
2018-09-22T14:26:04.980Z,100925.77
2018-09-22T14:29:09.301Z,100928.97
2018-09-22T14:32:13.589Z,100947.80
2018-09-22T14:35:17.979Z,100964.39
2018-09-22T14:38:22.250Z,100956.36
2018-09-22T14:41:26.552Z,100948.83
2018-09-22T14:44:30.924Z,100935.88
2018-09-22T14:47:35.271Z,100949.84
2018-09-22T14:50:39.566Z,100947.92
2018-09-22T14:53:43.949Z,100949.16
2018-09-22T14:56:48.256Z,100945.80
2018-09-22T14:59:52.545Z,100940.12
2018-09-22T15:02:56.832Z,100947.53
2018-09-22T15:06:01.265Z,100938.52
2018-09-22T15:09:08.203Z,100943.83
2018-09-22T15:12:12.586Z,100936.11
2018-09-22T15:15:16.908Z,100932.39
2018-09-22T15:18:21.215Z,100930.75
2018-09-22T15:21:25.502Z,100930.34
2018-09-22T15:24:29.813Z,100933.50
2018-09-22T15:27:34.169Z,100933.56
2018-09-22T15:30:38.494Z,100928.17
2018-09-22T15:33:42.816Z,100913.19
2018-09-22T15:36:47.192Z,100917.73
2018-09-22T15:39:51.503Z,100915.95
2018-09-22T15:42:55.808Z,100913.72
2018-09-22T15:46:00.255Z,100912.33
2018-09-22T15:49:04.512Z,100908.63
2018-09-22T15:52:08.864Z,100912.64
2018-09-22T15:55:13.341Z,100915.66
2018-09-22T15:58:17.685Z,100914.67
2018-09-22T16:01:22.048Z,100912.65
2018-09-22T16:04:26.353Z,100910.59
2018-09-22T16:07:30.674Z,100912.03
2018-09-22T16:10:35.004Z,100910.98
2018-09-22T16:13:39.331Z,100907.87
2018-09-22T16:16:43.623Z,100910.48
2018-09-22T16:19:47.959Z,100907.04
2018-09-22T16:22:52.380Z,100911.84
2018-09-22T16:25:56.698Z,100923.23
2018-09-22T16:29:01.040Z,100920.66
2018-09-22T16:32:05.347Z,100915.45
2018-09-22T16:35:09.839Z,100914.48
2018-09-22T16:38:14.181Z,100907.81
2018-09-22T16:41:18.646Z,100903.41
2018-09-22T16:44:22.963Z,100904.73
2018-09-22T16:47:27.263Z,100904.24
2018-09-22T16:50:31.541Z,100898.13
2018-09-22T16:53:35.841Z,100904.41
2018-09-22T16:56:40.223Z,100906.87
2018-09-22T16:59:44.620Z,100913.78
2018-09-22T17:02:48.976Z,100904.91
2018-09-22T17:05:53.311Z,100907.33
2018-09-22T17:08:57.549Z,100893.29
2018-09-22T17:12:01.965Z,100893.20
2018-09-22T17:15:06.267Z,100892.58
2018-09-22T17:18:10.569Z,100897.17
2018-09-22T17:21:14.900Z,100896.57
2018-09-22T17:24:19.250Z,100899.56
2018-09-22T17:27:23.567Z,100918.81
2018-09-22T17:30:27.897Z,100912.53
2018-09-22T17:33:32.318Z,100905.67
2018-09-22T17:36:36.632Z,100929.05
2018-09-22T17:39:40.966Z,100925.10
2018-09-22T17:42:45.232Z,100914.52
2018-09-22T17:45:49.878Z,100921.07
2018-09-22T17:48:54.202Z,100920.03
2018-09-22T17:51:58.565Z,100914.31
2018-09-22T17:55:03.120Z,100912.00
2018-09-22T17:58:07.436Z,100919.29
2018-09-22T18:01:11.806Z,100925.25
2018-09-22T18:04:16.242Z,100925.17
2018-09-22T18:07:20.534Z,100926.03
2018-09-22T18:10:24.808Z,100930.71
2018-09-22T18:13:29.397Z,100939.38
2018-09-22T18:16:34.390Z,100932.34
2018-09-22T18:19:38.954Z,100933.98
2018-09-22T18:22:43.318Z,100934.31
2018-09-22T18:25:47.635Z,100939.41
2018-09-22T18:28:52.050Z,100936.38
2018-09-22T18:31:56.473Z,100939.45
2018-09-22T18:35:00.943Z,100935.13
2018-09-22T18:38:05.297Z,100939.66
2018-09-22T18:41:09.608Z,100939.27
2018-09-22T18:44:13.977Z,100935.77
2018-09-22T18:47:18.488Z,100935.76
2018-09-22T18:50:24.495Z,100945.35
2018-09-22T18:53:28.846Z,100945.00
2018-09-22T18:56:33.358Z,100949.05
2018-09-22T18:59:37.877Z,100952.19
2018-09-22T19:02:42.425Z,100946.69
2018-09-22T19:05:47.036Z,100947.02
2018-09-22T19:08:51.489Z,100952.04
2018-09-22T19:11:56.035Z,100956.33
2018-09-22T19:15:05.898Z,100944.58
2018-09-22T19:18:15.775Z,100950.97
2018-09-22T19:21:25.073Z,100944.80
2018-09-22T19:24:36.126Z,100946.83
2018-09-22T19:27:45.799Z,100950.19
2018-09-22T19:30:51.485Z,100956.59
2018-09-22T19:33:59.022Z,100961.24
2018-09-22T19:37:06.941Z,100961.64
2018-09-22T19:40:51.603Z,100963.73
2018-09-22T19:44:33.211Z,100969.31
2018-09-22T19:47:44.607Z,100967.16
2018-09-22T19:50:54.233Z,100960.17
2018-09-22T19:54:00.558Z,100968.34
2018-09-22T19:57:06.797Z,100960.88
2018-09-22T20:00:12.411Z,100967.64
2018-09-22T20:03:17.685Z,100967.63
2018-09-22T20:06:22.931Z,100971.04
2018-09-22T20:09:27.415Z,100967.91
2018-09-22T20:12:31.893Z,100971.36
2018-09-22T20:15:36.310Z,100976.13
2018-09-22T20:18:40.722Z,100974.08
2018-09-22T20:21:45.198Z,100976.68
2018-09-22T20:24:49.547Z,100976.78
2018-09-22T20:27:54.046Z,100976.34
2018-09-22T20:30:58.516Z,100981.11
2018-09-22T20:34:02.851Z,100978.25
2018-09-22T20:37:07.256Z,100980.67
2018-09-22T20:40:11.665Z,100986.61
2018-09-22T20:43:16.097Z,100986.41
2018-09-22T20:46:20.451Z,100983.79
2018-09-22T20:49:24.763Z,100983.68
2018-09-22T20:52:29.182Z,100997.72
2018-09-22T20:55:33.517Z,100993.70
2018-09-22T20:58:37.828Z,100993.58
2018-09-22T21:01:42.324Z,100994.43
2018-09-22T21:04:46.703Z,100989.69
2018-09-22T21:07:51.095Z,100991.12
2018-09-22T21:10:55.380Z,100996.48
2018-09-22T21:13:59.719Z,100984.91
2018-09-22T21:17:04.021Z,100990.50
2018-09-22T21:20:08.369Z,100993.77
2018-09-22T21:23:12.672Z,100992.56
2018-09-22T21:26:17.016Z,100995.33
2018-09-22T21:29:21.302Z,101000.96
2018-09-22T21:32:25.592Z,100995.75
2018-09-22T21:35:29.866Z,100995.33
2018-09-22T21:38:34.195Z,100998.36
2018-09-22T21:41:38.533Z,100999.66
2018-09-22T21:44:42.815Z,101000.63
2018-09-22T21:47:47.077Z,100997.18
2018-09-22T21:50:51.405Z,100998.27
2018-09-22T21:53:55.713Z,100996.66
2018-09-22T21:57:00.044Z,101019.23
2018-09-22T22:00:04.499Z,101016.86
2018-09-22T22:03:08.789Z,101013.94
2018-09-22T22:06:13.219Z,101009.34
2018-09-22T22:09:17.607Z,101012.80
2018-09-22T22:12:21.889Z,101021.09
2018-09-22T22:15:26.248Z,101008.57
2018-09-22T22:18:30.567Z,100986.91
2018-09-22T22:21:35.163Z,100994.13
2018-09-22T22:24:39.438Z,100994.28
2018-09-22T22:27:43.721Z,100990.20
2018-09-22T22:30:48.009Z,100989.12
2018-09-22T22:33:52.957Z,100990.67
2018-09-22T22:36:57.324Z,100988.67
2018-09-22T22:40:01.645Z,100987.20
2018-09-22T22:43:06.013Z,100988.27
2018-09-22T22:46:10.422Z,100991.12
2018-09-22T22:49:14.708Z,100995.32
2018-09-22T22:52:19.069Z,100988.69
2018-09-22T22:55:23.449Z,100992.04
2018-09-22T22:58:27.770Z,100992.34
2018-09-22T23:01:32.093Z,100995.74
2018-09-22T23:04:36.566Z,100999.06
2018-09-22T23:07:40.847Z,100995.16
2018-09-22T23:10:45.292Z,101000.23
2018-09-22T23:13:49.602Z,100997.15
2018-09-22T23:16:53.901Z,101005.34
2018-09-22T23:19:58.363Z,100998.74
2018-09-22T23:23:02.643Z,100994.41
2018-09-22T23:26:07.072Z,100994.36
2018-09-22T23:29:11.308Z,100994.41
2018-09-22T23:32:15.607Z,100993.48
2018-09-22T23:35:19.933Z,100990.07
2018-09-22T23:38:24.284Z,101002.98
2018-09-22T23:41:28.578Z,100995.58
2018-09-22T23:44:32.893Z,100999.40
2018-09-22T23:47:37.230Z,100989.75
2018-09-22T23:50:41.558Z,100996.97
2018-09-22T23:53:46.815Z,100993.45
2018-09-22T23:56:51.067Z,100990.86
2018-09-22T23:59:55.313Z,100993.06
